createdAt,value
2023-06-10T00:01:03.329Z,16.92
2023-06-10T00:02:07.723Z,18.88
2023-06-10T00:03:11.807Z,16.48
2023-06-10T00:04:15.738Z,15.60
2023-06-10T00:05:19.804Z,15.53
2023-06-10T00:06:23.589Z,19.13
2023-06-10T00:07:27.348Z,18.08
2023-06-10T00:08:31.093Z,16.42
2023-06-10T00:09:34.859Z,17.88
2023-06-10T00:10:40.189Z,20.10
2023-06-10T00:11:45.820Z,15.75
2023-06-10T00:12:49.669Z,19.55
2023-06-10T00:13:53.435Z,16.20
2023-06-10T00:14:57.195Z,18.27
2023-06-10T00:16:02.322Z,17.17
2023-06-10T00:17:06.785Z,15.52
2023-06-10T00:18:10.611Z,20.05
2023-06-10T00:19:14.591Z,17.98
2023-06-10T00:20:21.004Z,18.67
2023-06-10T00:21:24.918Z,18.07
2023-06-10T00:22:29.439Z,18.70
2023-06-10T00:23:35.655Z,16.42
2023-06-10T00:24:39.426Z,18.23
2023-06-10T00:25:46.173Z,19.75
2023-06-10T00:26:51.798Z,18.40
2023-06-10T00:27:58.000Z,19.42
2023-06-10T00:29:01.995Z,17.85
2023-06-10T00:30:06.407Z,18.42
2023-06-10T00:31:10.239Z,16.17
2023-06-10T00:32:14.110Z,15.50
2023-06-10T00:33:17.931Z,19.73
2023-06-10T00:34:21.756Z,18.42
2023-06-10T00:35:25.416Z,18.15
2023-06-10T00:36:29.166Z,19.35
2023-06-10T00:37:35.891Z,17.63
2023-06-10T00:38:39.737Z,19.05
2023-06-10T00:39:43.683Z,16.25
2023-06-10T00:40:50.155Z,17.85
2023-06-10T00:41:55.680Z,17.60
2023-06-10T00:42:59.485Z,14.83
2023-06-10T00:44:03.321Z,15.43
2023-06-10T00:45:08.527Z,13.85
2023-06-10T00:46:14.021Z,13.77
2023-06-10T00:47:18.204Z,13.90
2023-06-10T00:48:22.252Z,12.77
2023-06-10T00:49:26.209Z,15.65
2023-06-10T00:50:30.088Z,12.35
2023-06-10T00:51:33.956Z,15.25
2023-06-10T00:52:38.458Z,15.43
2023-06-10T00:53:42.855Z,12.33
2023-06-10T00:54:47.145Z,12.15
2023-06-10T00:55:53.985Z,11.90
2023-06-10T00:56:59.805Z,14.02
2023-06-10T00:58:04.810Z,12.45
2023-06-10T00:59:08.772Z,14.80
2023-06-10T01:00:13.784Z,12.80
2023-06-10T01:01:17.742Z,11.10
2023-06-10T01:02:21.795Z,16.48
2023-06-10T01:03:25.746Z,13.50
2023-06-10T01:04:29.554Z,11.50
2023-06-10T01:05:33.371Z,12.38
2023-06-10T01:06:43.383Z,11.75
2023-06-10T01:07:54.536Z,13.40
2023-06-10T01:09:04.212Z,12.55
2023-06-10T01:10:13.755Z,10.63
2023-06-10T01:11:23.020Z,11.52
2023-06-10T01:12:35.405Z,12.50
2023-06-10T01:13:45.008Z,11.02
2023-06-10T01:14:49.515Z,11.57
2023-06-10T01:15:54.604Z,9.80
2023-06-10T01:16:58.544Z,11.65
2023-06-10T01:18:03.376Z,12.15
2023-06-10T01:19:07.215Z,11.45
2023-06-10T01:20:11.825Z,11.98
2023-06-10T01:21:23.331Z,11.73
2023-06-10T01:22:27.694Z,10.25
2023-06-10T01:23:32.057Z,12.32
2023-06-10T01:24:36.002Z,11.32
2023-06-10T01:25:41.527Z,11.38
2023-06-10T01:26:47.299Z,10.80
2023-06-10T01:27:52.780Z,11.27
2023-06-10T01:29:02.164Z,9.68
2023-06-10T01:30:10.407Z,11.10
2023-06-10T01:31:32.361Z,12.07
2023-06-10T01:32:42.675Z,11.53
2023-06-10T01:33:49.597Z,10.82
2023-06-10T01:34:54.286Z,10.93
2023-06-10T01:35:59.650Z,9.63
2023-06-10T01:37:05.940Z,9.02
2023-06-10T01:38:22.989Z,11.17
2023-06-10T01:39:27.307Z,12.07
2023-06-10T01:40:33.860Z,11.30
2023-06-10T01:41:38.230Z,13.50
2023-06-10T01:42:42.165Z,11.35
2023-06-10T01:43:46.550Z,10.47
2023-06-10T01:44:53.200Z,10.07
2023-06-10T01:45:59.060Z,12.02
2023-06-10T01:47:03.178Z,12.18
2023-06-10T01:48:07.421Z,12.23
2023-06-10T01:49:11.251Z,12.47
2023-06-10T01:50:15.184Z,9.70
2023-06-10T01:51:18.986Z,9.63
2023-06-10T01:52:26.588Z,12.10
2023-06-10T01:53:33.027Z,9.63
2023-06-10T01:54:36.861Z,12.10
2023-06-10T01:55:40.609Z,8.88
2023-06-10T01:56:44.364Z,10.45
2023-06-10T01:57:49.016Z,9.63
2023-06-10T01:59:01.644Z,13.55
2023-06-10T02:00:05.967Z,10.93
2023-06-10T02:01:09.730Z,10.77
2023-06-10T02:02:13.684Z,12.35
2023-06-10T02:03:17.521Z,14.15
2023-06-10T02:04:21.345Z,9.57
2023-06-10T02:05:25.109Z,10.27
2023-06-10T02:06:30.143Z,10.63
2023-06-10T02:07:35.543Z,9.57
2023-06-10T02:08:39.280Z,10.65
2023-06-10T02:09:43.010Z,13.00
2023-06-10T02:10:46.665Z,12.97
2023-06-10T02:11:50.398Z,11.18
2023-06-10T02:12:54.247Z,11.75
2023-06-10T02:13:58.030Z,10.38
2023-06-10T02:15:01.766Z,10.55
2023-06-10T02:16:05.810Z,10.37
2023-06-10T02:17:09.564Z,9.55
2023-06-10T02:18:13.329Z,8.07
2023-06-10T02:19:19.370Z,12.05
2023-06-10T02:20:23.291Z,11.10
2023-06-10T02:21:27.415Z,11.20
2023-06-10T02:22:31.210Z,11.63
2023-06-10T02:23:38.366Z,9.68
2023-06-10T02:24:42.296Z,9.55
2023-06-10T02:25:46.135Z,12.80
2023-06-10T02:26:49.787Z,10.87
2023-06-10T02:27:53.568Z,10.73
2023-06-10T02:28:57.313Z,11.95
2023-06-10T02:30:01.255Z,11.15
2023-06-10T02:31:05.211Z,11.93
2023-06-10T02:32:12.720Z,10.27
2023-06-10T02:33:18.718Z,11.80
2023-06-10T02:34:22.586Z,11.77
2023-06-10T02:35:33.003Z,11.75
2023-06-10T02:36:38.887Z,11.27
2023-06-10T02:37:42.604Z,12.90
2023-06-10T02:38:48.018Z,9.73
2023-06-10T02:39:51.764Z,11.93
2023-06-10T02:40:57.506Z,9.75
2023-06-10T02:42:01.279Z,10.80
2023-06-10T02:43:04.970Z,9.30
2023-06-10T02:44:08.753Z,10.77
2023-06-10T02:45:12.804Z,8.35
2023-06-10T02:46:16.700Z,13.38
2023-06-10T02:47:25.693Z,9.35
2023-06-10T02:48:30.512Z,8.97
2023-06-10T02:49:34.320Z,13.40
2023-06-10T02:50:38.055Z,10.88
2023-06-10T02:51:41.846Z,11.00
2023-06-10T02:52:46.267Z,12.00
2023-06-10T02:53:51.681Z,9.10
2023-06-10T02:54:55.502Z,10.80
2023-06-10T02:55:59.388Z,10.88
2023-06-10T02:57:03.299Z,11.32
2023-06-10T02:58:08.765Z,11.32
2023-06-10T02:59:12.523Z,10.03
2023-06-10T03:00:22.096Z,12.18
2023-06-10T03:01:28.753Z,11.40
2023-06-10T03:02:44.116Z,10.57
2023-06-10T03:03:48.429Z,13.27
2023-06-10T03:04:52.234Z,9.70
2023-06-10T03:05:56.148Z,9.32
2023-06-10T03:07:02.153Z,11.57
2023-06-10T03:08:06.463Z,9.40
2023-06-10T03:09:12.642Z,9.35
2023-06-10T03:10:16.854Z,8.90
2023-06-10T03:11:20.615Z,11.77
2023-06-10T03:12:24.476Z,11.00
2023-06-10T03:13:29.632Z,10.98
2023-06-10T03:14:33.501Z,8.48
2023-06-10T03:15:37.249Z,10.13
2023-06-10T03:16:41.196Z,10.30
2023-06-10T03:17:45.067Z,9.25
2023-06-10T03:18:48.853Z,10.95
2023-06-10T03:19:55.402Z,9.85
2023-06-10T03:20:59.262Z,10.10
2023-06-10T03:22:11.181Z,11.10
2023-06-10T03:23:14.974Z,10.18
2023-06-10T03:24:20.489Z,9.60
2023-06-10T03:25:24.167Z,9.95
2023-06-10T03:26:28.825Z,9.97
2023-06-10T03:27:32.697Z,8.68
2023-06-10T03:28:36.472Z,9.75
2023-06-10T03:29:45.830Z,11.18
2023-06-10T03:30:49.806Z,11.35
2023-06-10T03:31:53.530Z,10.97
2023-06-10T03:33:00.495Z,10.15
2023-06-10T03:34:04.787Z,9.25
2023-06-10T03:35:11.895Z,8.68
2023-06-10T03:36:19.334Z,11.27
2023-06-10T03:37:23.156Z,11.60
2023-06-10T03:38:30.135Z,10.32
2023-06-10T03:39:35.649Z,9.90
2023-06-10T03:40:40.428Z,7.72
2023-06-10T03:41:44.211Z,9.98
2023-06-10T03:42:47.986Z,11.17
2023-06-10T03:43:51.705Z,8.23
2023-06-10T03:44:55.491Z,9.73
2023-06-10T03:45:59.541Z,10.13
2023-06-10T03:47:03.322Z,8.65
2023-06-10T03:48:07.719Z,8.83
2023-06-10T03:49:11.576Z,9.15
2023-06-10T03:50:17.873Z,10.57
2023-06-10T03:51:21.726Z,9.90
2023-06-10T03:52:25.428Z,10.18
2023-06-10T03:53:29.106Z,9.77
2023-06-10T03:54:34.418Z,11.30
2023-06-10T03:55:38.149Z,10.02
2023-06-10T03:56:42.125Z,11.07
2023-06-10T03:57:45.877Z,11.43
2023-06-10T03:58:49.771Z,13.73
2023-06-10T03:59:53.950Z,12.05
2023-06-10T04:00:57.707Z,9.77
2023-06-10T04:02:01.685Z,9.70
2023-06-10T04:03:05.570Z,12.43
2023-06-10T04:04:09.361Z,10.27
2023-06-10T04:05:13.279Z,10.48
2023-06-10T04:06:17.019Z,12.23
2023-06-10T04:07:20.852Z,10.55
2023-06-10T04:08:24.550Z,10.85
2023-06-10T04:09:28.510Z,11.20
2023-06-10T04:10:33.969Z,7.85
2023-06-10T04:11:37.914Z,9.68
2023-06-10T04:12:41.729Z,10.23
2023-06-10T04:13:45.459Z,10.75
2023-06-10T04:14:49.176Z,10.20
2023-06-10T04:15:53.023Z,12.05
2023-06-10T04:16:56.831Z,10.32
2023-06-10T04:18:00.742Z,10.15
2023-06-10T04:19:07.180Z,10.38
2023-06-10T04:20:11.499Z,10.80
2023-06-10T04:21:15.249Z,9.90
2023-06-10T04:22:18.976Z,10.90
2023-06-10T04:23:22.812Z,11.25
2023-06-10T04:24:26.585Z,11.43
2023-06-10T04:25:30.274Z,9.97
2023-06-10T04:26:37.694Z,9.05
2023-06-10T04:27:41.432Z,8.93
2023-06-10T04:28:46.127Z,11.27
2023-06-10T04:29:49.905Z,13.32
2023-06-10T04:30:53.557Z,10.23
2023-06-10T04:31:57.415Z,10.82
2023-06-10T04:33:01.266Z,8.90
2023-06-10T04:34:05.124Z,11.45
2023-06-10T04:35:10.227Z,10.38
2023-06-10T04:36:14.218Z,11.57
2023-06-10T04:37:18.008Z,11.80
2023-06-10T04:38:21.724Z,10.57
2023-06-10T04:39:25.427Z,8.95
2023-06-10T04:40:29.137Z,10.98
2023-06-10T04:41:34.613Z,10.70
2023-06-10T04:42:38.564Z,9.80
2023-06-10T04:43:42.351Z,12.98
2023-06-10T04:44:46.110Z,11.13
2023-06-10T04:45:49.852Z,10.02
2023-06-10T04:46:53.628Z,11.80
2023-06-10T04:47:57.385Z,8.63
2023-06-10T04:49:01.647Z,11.18
2023-06-10T04:50:06.152Z,9.00
2023-06-10T04:51:09.851Z,11.52
2023-06-10T04:52:13.657Z,8.23
2023-06-10T04:53:17.420Z,8.05
2023-06-10T04:54:21.114Z,9.95
2023-06-10T04:55:25.009Z,8.32
2023-06-10T04:56:28.727Z,8.85
2023-06-10T04:57:34.030Z,11.73
2023-06-10T04:58:37.774Z,8.57
2023-06-10T04:59:41.476Z,11.02
2023-06-10T05:00:45.243Z,10.50
2023-06-10T05:01:48.974Z,8.13
2023-06-10T05:02:52.833Z,7.93
2023-06-10T05:03:56.642Z,8.55
2023-06-10T05:05:00.353Z,8.60
2023-06-10T05:06:04.355Z,7.75
2023-06-10T05:07:08.277Z,9.77
2023-06-10T05:08:11.958Z,8.97
2023-06-10T05:09:15.727Z,7.82
2023-06-10T05:10:19.507Z,8.43
2023-06-10T05:11:23.276Z,8.27
2023-06-10T05:12:27.015Z,7.10
2023-06-10T05:13:32.296Z,8.17
2023-06-10T05:14:36.020Z,7.45
2023-06-10T05:15:39.746Z,8.55
2023-06-10T05:16:43.582Z,9.25
2023-06-10T05:17:47.328Z,6.93
2023-06-10T05:18:51.259Z,7.77
2023-06-10T05:19:55.036Z,8.98
2023-06-10T05:20:58.759Z,7.82
2023-06-10T05:22:02.427Z,7.82
2023-06-10T05:23:06.182Z,6.82
2023-06-10T05:24:10.994Z,7.37
2023-06-10T05:25:14.721Z,7.13
2023-06-10T05:26:18.495Z,8.25
2023-06-10T05:27:22.319Z,8.27
2023-06-10T05:28:26.039Z,8.30
2023-06-10T05:29:31.407Z,7.23
2023-06-10T05:30:35.184Z,10.38
2023-06-10T05:31:38.958Z,7.43
2023-06-10T05:32:42.703Z,7.88
2023-06-10T05:33:46.465Z,8.25
2023-06-10T05:34:50.138Z,9.07
2023-06-10T05:35:53.958Z,7.50
2023-06-10T05:36:57.922Z,6.72
2023-06-10T05:38:03.837Z,8.82
2023-06-10T05:39:07.908Z,7.50
2023-06-10T05:40:12.652Z,8.80
2023-06-10T05:41:16.494Z,7.07
2023-06-10T05:42:20.283Z,8.05
2023-06-10T05:43:24.028Z,6.80
2023-06-10T05:44:27.717Z,9.55
2023-06-10T05:45:33.168Z,8.60
2023-06-10T05:46:37.099Z,7.55
2023-06-10T05:47:40.984Z,7.32
2023-06-10T05:48:44.818Z,8.52
2023-06-10T05:49:48.557Z,8.15
2023-06-10T05:50:52.351Z,6.37
2023-06-10T05:51:56.186Z,7.97
2023-06-10T05:52:59.874Z,8.13
2023-06-10T05:54:03.616Z,9.77
2023-06-10T05:55:08.035Z,8.55
2023-06-10T05:56:11.990Z,8.83
2023-06-10T05:57:15.790Z,8.18
2023-06-10T05:58:19.609Z,7.45
2023-06-10T05:59:23.384Z,9.50
2023-06-10T06:00:27.273Z,9.68
2023-06-10T06:01:32.703Z,8.40
2023-06-10T06:02:36.657Z,8.43
2023-06-10T06:03:40.579Z,9.30
2023-06-10T06:04:44.358Z,9.73
2023-06-10T06:05:48.286Z,8.90
2023-06-10T06:06:51.956Z,11.30
2023-06-10T06:07:55.748Z,8.25
2023-06-10T06:08:59.511Z,8.32
2023-06-10T06:10:03.406Z,9.85
2023-06-10T06:11:07.187Z,10.55
2023-06-10T06:12:11.454Z,10.60
2023-06-10T06:13:15.219Z,9.45
2023-06-10T06:14:18.936Z,7.70
2023-06-10T06:15:22.673Z,8.45
2023-06-10T06:16:26.523Z,8.98
2023-06-10T06:17:31.999Z,9.73
2023-06-10T06:18:35.784Z,8.88
2023-06-10T06:19:39.515Z,10.38
2023-06-10T06:20:43.306Z,10.75
2023-06-10T06:21:47.116Z,9.88
2023-06-10T06:22:54.183Z,10.23
2023-06-10T06:23:57.970Z,8.95
2023-06-10T06:25:01.933Z,7.68
2023-06-10T06:26:08.053Z,8.05
2023-06-10T06:27:12.653Z,9.70
2023-06-10T06:28:16.488Z,8.27
2023-06-10T06:29:20.309Z,9.13
2023-06-10T06:30:24.083Z,9.02
2023-06-10T06:31:27.812Z,7.47
2023-06-10T06:32:33.431Z,8.90
2023-06-10T06:33:37.207Z,9.33
2023-06-10T06:34:40.984Z,11.52
2023-06-10T06:35:44.633Z,8.40
2023-06-10T06:36:48.377Z,8.85
2023-06-10T06:37:52.258Z,7.78
2023-06-10T06:38:56.001Z,7.37
2023-06-10T06:40:03.947Z,9.85
2023-06-10T06:41:08.294Z,8.30
2023-06-10T06:42:13.034Z,9.70
2023-06-10T06:43:16.930Z,7.63
2023-06-10T06:44:20.672Z,8.20
2023-06-10T06:45:24.465Z,9.07
2023-06-10T06:46:28.215Z,7.80
2023-06-10T06:47:33.799Z,10.27
2023-06-10T06:48:37.754Z,8.48
2023-06-10T06:49:43.595Z,8.40
2023-06-10T06:50:47.335Z,11.20
2023-06-10T06:51:53.730Z,7.90
2023-06-10T06:52:57.423Z,8.32
2023-06-10T06:54:08.652Z,9.98
2023-06-10T06:55:14.576Z,8.70
2023-06-10T06:56:18.337Z,8.32
2023-06-10T06:57:22.091Z,8.50
2023-06-10T06:58:27.911Z,8.45
2023-06-10T06:59:31.833Z,8.38
2023-06-10T07:00:35.639Z,9.40
2023-06-10T07:01:39.483Z,9.38
2023-06-10T07:02:44.989Z,7.90
2023-06-10T07:03:48.738Z,8.98
2023-06-10T07:04:52.830Z,9.23
2023-06-10T07:05:56.576Z,9.40
2023-06-10T07:07:00.309Z,8.55
2023-06-10T07:08:04.052Z,7.40
2023-06-10T07:09:07.860Z,7.93
2023-06-10T07:10:11.843Z,9.38
2023-06-10T07:11:15.675Z,7.60
2023-06-10T07:12:19.408Z,8.80
2023-06-10T07:13:23.200Z,9.15
2023-06-10T07:14:26.978Z,11.55
2023-06-10T07:15:30.636Z,8.40
2023-06-10T07:16:34.441Z,8.47
2023-06-10T07:17:38.193Z,8.98
2023-06-10T07:18:43.722Z,8.07
2023-06-10T07:19:51.252Z,8.70
2023-06-10T07:20:54.869Z,9.77
2023-06-10T07:21:58.526Z,11.47
2023-06-10T07:23:02.290Z,7.88
2023-06-10T07:24:06.826Z,9.38
2023-06-10T07:25:11.130Z,9.15
2023-06-10T07:26:15.087Z,12.25
2023-06-10T07:27:18.809Z,11.63
2023-06-10T07:28:22.738Z,8.80
2023-06-10T07:29:26.545Z,9.20
2023-06-10T07:30:30.694Z,8.00
2023-06-10T07:31:34.560Z,9.45
2023-06-10T07:32:38.710Z,9.63
2023-06-10T07:33:44.112Z,9.20
2023-06-10T07:34:47.928Z,8.13
2023-06-10T07:35:51.751Z,10.27
2023-06-10T07:36:55.644Z,7.55
2023-06-10T07:37:59.401Z,8.30
2023-06-10T07:39:03.124Z,7.75
2023-06-10T07:40:07.741Z,8.48
2023-06-10T07:41:14.995Z,8.48
2023-06-10T07:42:22.274Z,10.13
2023-06-10T07:43:26.698Z,9.97
2023-06-10T07:44:30.447Z,8.82
2023-06-10T07:45:34.185Z,9.43
2023-06-10T07:46:38.001Z,10.57
2023-06-10T07:47:41.784Z,8.30
2023-06-10T07:48:47.242Z,8.30
2023-06-10T07:49:50.955Z,9.55
2023-06-10T07:50:54.659Z,8.55
2023-06-10T07:51:58.471Z,8.38
2023-06-10T07:53:02.261Z,8.90
2023-06-10T07:54:06.168Z,11.73
2023-06-10T07:55:10.569Z,10.82
2023-06-10T07:56:14.523Z,10.38
2023-06-10T07:57:18.407Z,9.82
2023-06-10T07:58:22.305Z,12.00
2023-06-10T07:59:26.005Z,10.40
2023-06-10T08:00:29.763Z,8.18
2023-06-10T08:01:33.486Z,9.93
2023-06-10T08:02:37.340Z,8.10
2023-06-10T08:03:41.588Z,10.63
2023-06-10T08:04:47.026Z,9.33
2023-06-10T08:05:51.538Z,10.30
2023-06-10T08:06:55.265Z,9.93
2023-06-10T08:08:00.683Z,8.63
2023-06-10T08:09:05.781Z,11.35
2023-06-10T08:10:10.514Z,11.73
2023-06-10T08:11:14.309Z,10.73
2023-06-10T08:12:18.001Z,11.48
2023-06-10T08:13:21.724Z,12.05
2023-06-10T08:14:25.506Z,10.23
2023-06-10T08:15:29.131Z,9.57
2023-06-10T08:16:32.888Z,10.18
2023-06-10T08:17:36.668Z,9.68
2023-06-10T08:18:40.431Z,8.93
2023-06-10T08:19:44.366Z,15.15
2023-06-10T08:20:49.719Z,10.60
2023-06-10T08:21:53.458Z,12.90
2023-06-10T08:22:57.173Z,11.27
2023-06-10T08:24:00.898Z,9.40
2023-06-10T08:25:05.132Z,10.82
2023-06-10T08:26:08.797Z,11.47
2023-06-10T08:27:12.552Z,9.77
2023-06-10T08:28:17.548Z,10.65
2023-06-10T08:29:21.319Z,9.32
2023-06-10T08:30:25.143Z,12.27
2023-06-10T08:31:28.931Z,10.73
2023-06-10T08:32:32.951Z,10.70
2023-06-10T08:33:36.677Z,13.73
2023-06-10T08:34:40.474Z,10.70
2023-06-10T08:35:44.179Z,11.68
2023-06-10T08:36:49.563Z,9.83
2023-06-10T08:37:53.268Z,11.35
2023-06-10T08:38:56.992Z,10.00
2023-06-10T08:40:00.681Z,12.52
2023-06-10T08:41:06.991Z,10.50
2023-06-10T08:42:17.282Z,11.00
2023-06-10T08:43:32.287Z,11.27
2023-06-10T08:44:38.193Z,10.50
2023-06-10T08:45:44.483Z,11.05
2023-06-10T08:46:49.877Z,12.02
2023-06-10T08:47:55.494Z,10.63
2023-06-10T08:49:04.226Z,14.52
2023-06-10T08:50:11.741Z,10.18
2023-06-10T08:51:18.387Z,9.13
2023-06-10T08:52:23.835Z,11.15
2023-06-10T08:53:28.948Z,12.10
2023-06-10T08:54:35.799Z,11.00
2023-06-10T08:55:43.742Z,9.95
2023-06-10T08:56:49.625Z,11.45
2023-06-10T08:57:54.383Z,13.52
2023-06-10T08:58:59.429Z,10.67
2023-06-10T09:00:03.438Z,8.88
2023-06-10T09:01:07.267Z,11.90
2023-06-10T09:02:14.813Z,10.23
2023-06-10T09:03:20.165Z,10.52
2023-06-10T09:04:25.882Z,9.63
2023-06-10T09:05:30.606Z,12.98
2023-06-10T09:06:35.823Z,11.27
2023-06-10T09:07:41.271Z,12.43
2023-06-10T09:08:45.629Z,11.52
2023-06-10T09:09:50.835Z,10.63
2023-06-10T09:10:54.984Z,10.73
2023-06-10T09:11:58.746Z,12.18
2023-06-10T09:13:02.493Z,10.75
2023-06-10T09:14:06.299Z,11.63
2023-06-10T09:15:10.935Z,9.57
2023-06-10T09:16:14.976Z,12.13
2023-06-10T09:17:19.242Z,11.93
2023-06-10T09:18:22.961Z,12.55
2023-06-10T09:19:27.128Z,12.98
2023-06-10T09:20:33.575Z,11.10
2023-06-10T09:21:37.311Z,11.40
2023-06-10T09:22:44.618Z,9.00
2023-06-10T09:23:48.936Z,10.98
2023-06-10T09:24:52.800Z,9.25
2023-06-10T09:25:59.801Z,11.77
2023-06-10T09:27:07.183Z,8.30
2023-06-10T09:28:16.358Z,8.85
2023-06-10T09:29:20.107Z,9.98
2023-06-10T09:30:28.567Z,8.70
2023-06-10T09:31:33.228Z,9.43
2023-06-10T09:32:41.312Z,10.43
2023-06-10T09:33:46.335Z,10.75
2023-06-10T09:34:50.480Z,8.38
2023-06-10T09:35:54.189Z,9.88
2023-06-10T09:36:58.004Z,9.33
2023-06-10T09:38:03.792Z,12.30
2023-06-10T09:39:15.466Z,9.45
2023-06-10T09:40:19.457Z,9.60
2023-06-10T09:41:23.319Z,9.40
2023-06-10T09:42:27.060Z,8.17
2023-06-10T09:43:51.093Z,8.80
2023-06-10T09:44:54.941Z,9.05
2023-06-10T09:45:59.019Z,11.25
2023-06-10T09:47:02.882Z,10.38
2023-06-10T09:48:06.931Z,9.90
2023-06-10T09:49:10.675Z,9.38
2023-06-10T09:50:14.703Z,8.38
2023-06-10T09:51:18.776Z,9.93
2023-06-10T09:52:25.066Z,9.15
2023-06-10T09:53:35.065Z,8.33
2023-06-10T09:54:38.925Z,8.70
2023-06-10T09:55:43.443Z,8.23
2023-06-10T09:56:49.605Z,9.38
2023-06-10T09:57:56.330Z,7.30
2023-06-10T09:59:00.040Z,9.53
2023-06-10T10:00:07.674Z,7.45
2023-06-10T10:01:13.076Z,10.43
2023-06-10T10:02:17.767Z,8.10
2023-06-10T10:03:25.261Z,8.10
2023-06-10T10:04:29.339Z,10.47
2023-06-10T10:05:33.072Z,8.07
2023-06-10T10:06:37.170Z,8.48
2023-06-10T10:07:43.610Z,9.50
2023-06-10T10:08:50.388Z,8.23
2023-06-10T10:09:54.278Z,7.73
2023-06-10T10:11:02.922Z,9.55
2023-06-10T10:12:12.556Z,8.00
2023-06-10T10:13:16.449Z,8.93
2023-06-10T10:14:21.876Z,9.13
2023-06-10T10:15:30.591Z,7.47
2023-06-10T10:16:38.267Z,9.43
2023-06-10T10:17:46.711Z,7.93
2023-06-10T10:18:55.956Z,7.88
2023-06-10T10:20:05.504Z,8.15
2023-06-10T10:21:15.029Z,7.17
2023-06-10T10:22:26.968Z,8.55
2023-06-10T10:23:37.408Z,7.40
2023-06-10T10:24:48.629Z,8.93
2023-06-10T10:25:55.647Z,8.77
2023-06-10T10:27:03.136Z,10.67
2023-06-10T10:28:10.994Z,8.05
2023-06-10T10:29:25.936Z,8.15
2023-06-10T10:30:32.232Z,7.93
2023-06-10T10:31:38.235Z,9.88
2023-06-10T10:32:50.750Z,6.97
2023-06-10T10:33:59.979Z,9.98
2023-06-10T10:35:10.083Z,7.50
2023-06-10T10:36:15.799Z,8.82
2023-06-10T10:37:20.243Z,8.18
2023-06-10T10:38:24.610Z,9.90
2023-06-10T10:39:28.518Z,9.05
2023-06-10T10:40:35.464Z,7.97
2023-06-10T10:41:40.509Z,7.35
2023-06-10T10:42:45.410Z,7.22
2023-06-10T10:43:49.840Z,7.93
2023-06-10T10:44:54.340Z,8.85
2023-06-10T10:46:01.559Z,7.53
2023-06-10T10:47:06.390Z,8.20
2023-06-10T10:48:11.424Z,8.38
2023-06-10T10:49:17.185Z,8.43
2023-06-10T10:50:22.445Z,10.25
2023-06-10T10:51:26.334Z,8.70
2023-06-10T10:52:53.111Z,7.85
2023-06-10T10:54:15.980Z,9.35
2023-06-10T10:55:19.758Z,8.60
2023-06-10T10:56:29.884Z,8.13
2023-06-10T10:57:33.699Z,8.45
2023-06-10T10:58:37.757Z,8.55
2023-06-10T10:59:53.250Z,8.88
2023-06-10T11:00:57.414Z,8.13
2023-06-10T11:02:01.468Z,8.73
2023-06-10T11:03:11.228Z,9.15
2023-06-10T11:04:22.239Z,7.60
2023-06-10T11:05:37.726Z,8.57
2023-06-10T11:06:41.689Z,6.37
2023-06-10T11:07:55.927Z,7.85
2023-06-10T11:09:02.291Z,7.95
2023-06-10T11:10:10.345Z,7.35
2023-06-10T11:11:21.625Z,8.68
2023-06-10T11:12:27.020Z,8.23
2023-06-10T11:13:30.711Z,8.82
2023-06-10T11:14:34.338Z,8.65
2023-06-10T11:15:44.808Z,9.32
2023-06-10T11:16:50.301Z,9.18
2023-06-10T11:18:11.015Z,8.00
2023-06-10T11:19:34.282Z,8.02
2023-06-10T11:21:01.343Z,7.55
2023-06-10T11:22:07.468Z,8.52
2023-06-10T11:23:11.350Z,8.45
2023-06-10T11:24:15.505Z,8.40
2023-06-10T11:25:39.359Z,11.45
2023-06-10T11:26:46.804Z,9.52
2023-06-10T11:27:54.479Z,8.65
2023-06-10T11:29:07.081Z,8.80
2023-06-10T11:30:28.617Z,8.93
2023-06-10T11:31:33.361Z,10.73
2023-06-10T11:32:37.515Z,9.32
2023-06-10T11:33:41.429Z,9.63
2023-06-10T11:34:53.630Z,10.52
2023-06-10T11:35:57.337Z,10.83
2023-06-10T11:37:01.615Z,9.68
2023-06-10T11:38:05.404Z,8.93
2023-06-10T11:39:09.551Z,9.95
2023-06-10T11:40:18.868Z,10.82
2023-06-10T11:41:22.804Z,8.40
2023-06-10T11:42:26.675Z,10.70
2023-06-10T11:43:32.753Z,8.98
2023-06-10T11:44:36.501Z,9.23
2023-06-10T11:45:43.051Z,8.68
2023-06-10T11:46:47.635Z,8.60
2023-06-10T11:48:01.322Z,9.35
2023-06-10T11:49:06.090Z,8.80
2023-06-10T11:50:10.432Z,9.75
2023-06-10T11:51:14.128Z,10.02
2023-06-10T11:52:17.880Z,9.67
2023-06-10T11:53:21.617Z,10.00
2023-06-10T11:54:25.309Z,9.77
2023-06-10T11:55:44.082Z,10.43
2023-06-10T11:56:47.956Z,10.63
2023-06-10T11:57:51.737Z,10.37
2023-06-10T11:58:58.190Z,9.30
2023-06-10T12:00:07.262Z,9.05
2023-06-10T12:01:12.888Z,8.60
2023-06-10T12:02:18.188Z,10.02
2023-06-10T12:03:22.778Z,10.10
2023-06-10T12:04:26.637Z,9.07
2023-06-10T12:05:30.396Z,9.25
2023-06-10T12:06:44.642Z,9.23
2023-06-10T12:07:48.395Z,9.10
2023-06-10T12:08:52.475Z,9.53
2023-06-10T12:10:12.032Z,11.45
2023-06-10T12:11:23.276Z,10.43
2023-06-10T12:12:27.104Z,8.45
2023-06-10T12:13:31.174Z,9.95
2023-06-10T12:14:56.920Z,9.40
2023-06-10T12:16:09.579Z,10.05
2023-06-10T12:17:13.394Z,8.25
2023-06-10T12:18:20.608Z,12.07
2023-06-10T12:19:24.359Z,11.55
2023-06-10T12:20:29.154Z,11.20
2023-06-10T12:21:33.767Z,11.82
2023-06-10T12:22:41.746Z,10.80
2023-06-10T12:24:07.074Z,8.57
2023-06-10T12:25:12.396Z,9.73
2023-06-10T12:26:16.708Z,7.33
2023-06-10T12:27:21.568Z,9.35
2023-06-10T12:28:25.869Z,9.50
2023-06-10T12:29:29.713Z,8.50
2023-06-10T12:30:35.291Z,9.38
2023-06-10T12:32:00.575Z,9.83
2023-06-10T12:33:04.899Z,9.70
2023-06-10T12:34:11.834Z,8.05
2023-06-10T12:35:18.143Z,9.85
2023-06-10T12:36:22.114Z,11.35
2023-06-10T12:37:25.900Z,10.30
2023-06-10T12:38:29.693Z,11.43
2023-06-10T12:39:34.334Z,9.07
2023-06-10T12:40:40.794Z,9.50
2023-06-10T12:41:49.759Z,10.30
2023-06-10T12:42:53.574Z,8.60
2023-06-10T12:43:57.295Z,10.10
2023-06-10T12:45:01.028Z,11.55
2023-06-10T12:46:13.195Z,10.82
2023-06-10T12:47:17.090Z,11.90
2023-06-10T12:48:22.036Z,8.87
2023-06-10T12:49:26.204Z,10.30
2023-06-10T12:50:29.961Z,9.15
2023-06-10T12:51:33.758Z,11.18
2023-06-10T12:52:37.474Z,9.65
2023-06-10T12:53:41.406Z,11.20
2023-06-10T12:54:45.265Z,10.68
2023-06-10T12:55:49.085Z,11.48
2023-06-10T12:56:52.857Z,13.15
2023-06-10T12:57:56.677Z,11.52
2023-06-10T12:59:00.346Z,9.93
2023-06-10T13:00:04.275Z,9.93
2023-06-10T13:01:07.984Z,10.48
2023-06-10T13:02:13.362Z,10.82
2023-06-10T13:03:17.395Z,12.85
2023-06-10T13:04:21.432Z,11.30
2023-06-10T13:05:25.624Z,11.20
2023-06-10T13:06:29.398Z,12.07
2023-06-10T13:07:33.163Z,9.52
2023-06-10T13:08:37.084Z,9.95
2023-06-10T13:09:40.785Z,9.43
2023-06-10T13:10:44.547Z,10.40
2023-06-10T13:11:48.422Z,8.77
2023-06-10T13:12:52.289Z,12.02
2023-06-10T13:13:56.011Z,9.85
2023-06-10T13:14:59.737Z,8.77
2023-06-10T13:16:03.547Z,11.90
2023-06-10T13:17:07.656Z,8.68
2023-06-10T13:18:13.330Z,12.98
2023-06-10T13:19:17.312Z,10.15
2023-06-10T13:20:21.897Z,10.93
2023-06-10T13:21:25.878Z,9.68
2023-06-10T13:22:29.820Z,9.63
2023-06-10T13:23:33.562Z,9.65
2023-06-10T13:24:37.574Z,10.07
2023-06-10T13:25:41.280Z,9.03
2023-06-10T13:26:45.211Z,8.68
2023-06-10T13:27:49.038Z,9.23
2023-06-10T13:28:52.818Z,9.27
2023-06-10T13:29:56.674Z,10.05
2023-06-10T13:31:00.400Z,9.07
2023-06-10T13:32:04.175Z,9.20
2023-06-10T13:33:08.037Z,9.52
2023-06-10T13:34:14.628Z,9.75
2023-06-10T13:35:18.768Z,10.52
2023-06-10T13:36:24.651Z,10.77
2023-06-10T13:37:28.346Z,10.80
2023-06-10T13:38:32.454Z,9.90
2023-06-10T13:39:38.745Z,8.38
2023-06-10T13:40:42.544Z,9.50
2023-06-10T13:41:46.212Z,8.30
2023-06-10T13:42:49.920Z,9.60
2023-06-10T13:43:53.672Z,9.15
2023-06-10T13:44:57.439Z,8.20
2023-06-10T13:46:01.294Z,8.55
2023-06-10T13:47:05.492Z,7.87
2023-06-10T13:48:09.349Z,8.02
2023-06-10T13:49:14.799Z,8.90
2023-06-10T13:50:18.469Z,8.93
2023-06-10T13:51:22.286Z,8.02
2023-06-10T13:52:26.078Z,10.73
2023-06-10T13:53:29.942Z,11.70
2023-06-10T13:54:33.686Z,8.73
2023-06-10T13:55:37.602Z,9.50
2023-06-10T13:56:41.368Z,9.73
2023-06-10T13:57:45.034Z,8.87
2023-06-10T13:58:50.052Z,7.53
2023-06-10T13:59:53.744Z,10.68
2023-06-10T14:00:57.539Z,9.38
2023-06-10T14:02:01.487Z,10.25
2023-06-10T14:03:05.561Z,9.20
2023-06-10T14:04:09.414Z,10.25
2023-06-10T14:05:14.839Z,8.43
2023-06-10T14:06:18.553Z,10.77
2023-06-10T14:07:22.427Z,8.48
2023-06-10T14:08:26.169Z,10.37
2023-06-10T14:09:29.949Z,10.80
2023-06-10T14:10:33.596Z,9.45
2023-06-10T14:11:37.426Z,9.25
2023-06-10T14:12:41.202Z,10.48
2023-06-10T14:13:44.932Z,9.70
2023-06-10T14:14:48.812Z,9.15
2023-06-10T14:15:52.591Z,11.30